createdAt,value
2022-08-02T00:00:40.512Z,60.94
2022-08-02T00:03:10.968Z,60.89
2022-08-02T00:05:39.051Z,60.99
2022-08-02T00:08:08.153Z,61.30
2022-08-02T00:10:35.918Z,61.23
2022-08-02T00:13:03.899Z,61.31
2022-08-02T00:15:31.646Z,60.99
2022-08-02T00:17:59.386Z,61.38
2022-08-02T00:20:27.143Z,61.26
2022-08-02T00:22:54.973Z,61.20
2022-08-02T00:25:22.789Z,61.22
2022-08-02T00:27:50.543Z,61.39
2022-08-02T00:30:18.266Z,61.27
2022-08-02T00:32:45.967Z,61.34
2022-08-02T00:35:13.722Z,61.21
2022-08-02T00:37:42.064Z,61.43
2022-08-02T00:40:11.180Z,61.78
2022-08-02T00:42:40.161Z,61.63
2022-08-02T00:45:08.719Z,61.89
2022-08-02T00:47:36.617Z,62.01
2022-08-02T00:50:04.781Z,62.19
2022-08-02T00:52:32.485Z,62.26
2022-08-02T00:55:00.201Z,62.18
2022-08-02T00:57:27.965Z,62.26
2022-08-02T00:59:55.723Z,62.43
2022-08-02T01:02:23.479Z,62.40
2022-08-02T01:04:51.241Z,62.41
2022-08-02T01:07:19.072Z,62.59
2022-08-02T01:09:47.023Z,62.54
2022-08-02T01:12:15.170Z,62.50
2022-08-02T01:14:47.089Z,62.71
2022-08-02T01:17:22.354Z,62.66
2022-08-02T01:20:15.125Z,62.65
2022-08-02T01:23:09.623Z,62.62
2022-08-02T01:26:19.438Z,62.69
2022-08-02T01:28:53.674Z,62.94
2022-08-02T01:31:43.159Z,62.98
2022-08-02T01:34:30.850Z,63.10
2022-08-02T01:37:16.085Z,62.91
2022-08-02T01:39:45.894Z,63.04
2022-08-02T01:42:15.371Z,63.04
2022-08-02T01:44:44.410Z,63.24
2022-08-02T01:47:19.698Z,63.16
2022-08-02T01:49:53.071Z,63.22
2022-08-02T01:52:22.312Z,63.17
2022-08-02T01:54:56.995Z,63.32
2022-08-02T01:57:27.947Z,63.29
2022-08-02T02:00:01.600Z,63.22
2022-08-02T02:02:32.447Z,63.13
2022-08-02T02:05:02.491Z,63.26
2022-08-02T02:07:33.763Z,63.34
2022-08-02T02:10:03.634Z,63.33
2022-08-02T02:12:35.009Z,63.42
2022-08-02T02:15:04.302Z,63.52
2022-08-02T02:17:52.976Z,63.49
2022-08-02T02:20:22.321Z,63.72
2022-08-02T02:22:50.434Z,63.62
2022-08-02T02:25:24.979Z,63.69
2022-08-02T02:28:30.666Z,63.77
2022-08-02T02:31:11.893Z,63.46
2022-08-02T02:34:14.984Z,63.81
2022-08-02T02:36:52.422Z,63.73
2022-08-02T02:39:27.146Z,63.64
2022-08-02T02:41:58.860Z,63.47
2022-08-02T02:44:27.118Z,63.55
2022-08-02T02:46:56.289Z,63.43
2022-08-02T02:49:26.140Z,63.65
2022-08-02T02:51:55.919Z,63.56
2022-08-02T02:54:30.144Z,63.63
2022-08-02T02:57:05.152Z,64.07
2022-08-02T02:59:34.736Z,64.46
2022-08-02T03:02:04.958Z,64.23
2022-08-02T03:04:55.471Z,63.89
2022-08-02T03:07:23.802Z,64.03
2022-08-02T03:09:54.110Z,64.41
2022-08-02T03:12:30.167Z,64.39
2022-08-02T03:15:05.544Z,64.74
2022-08-02T03:17:45.596Z,64.74
2022-08-02T03:20:15.810Z,64.89
2022-08-02T03:22:45.223Z,64.52
2022-08-02T03:25:14.867Z,64.66
2022-08-02T03:27:42.740Z,64.85
2022-08-02T03:30:13.368Z,65.23
2022-08-02T03:32:45.044Z,65.09
2022-08-02T03:35:21.296Z,65.32
2022-08-02T03:37:54.490Z,65.34
2022-08-02T03:40:23.280Z,65.24
2022-08-02T03:42:51.579Z,65.34
2022-08-02T03:45:20.227Z,65.43
2022-08-02T03:47:48.278Z,65.52
2022-08-02T03:50:16.638Z,65.66
2022-08-02T03:52:47.673Z,65.62
2022-08-02T03:55:15.498Z,65.45
2022-08-02T03:57:43.680Z,65.18
2022-08-02T04:00:18.205Z,65.15
2022-08-02T04:02:46.377Z,65.64
2022-08-02T04:05:14.992Z,65.98
2022-08-02T04:08:33.657Z,65.95
2022-08-02T04:10:31.791Z,66.14
2022-08-02T04:12:59.624Z,66.06
2022-08-02T04:15:27.357Z,66.10
2022-08-02T04:17:59.668Z,66.10
2022-08-02T04:20:33.761Z,66.38
2022-08-02T04:23:10.591Z,66.20
2022-08-02T04:25:40.487Z,65.99
2022-08-02T04:28:16.527Z,65.70
2022-08-02T04:30:47.645Z,65.71
2022-08-02T04:33:16.592Z,66.08
2022-08-02T04:35:45.043Z,65.87
2022-08-02T04:38:14.909Z,65.81
2022-08-02T04:40:51.934Z,66.08
2022-08-02T04:43:20.247Z,66.26
2022-08-02T04:45:54.591Z,66.33
2022-08-02T04:48:22.917Z,66.62
2022-08-02T04:50:51.101Z,66.80
2022-08-02T04:53:19.077Z,66.98
2022-08-02T04:55:47.095Z,67.12
2022-08-02T04:58:38.778Z,67.19
2022-08-02T05:01:02.916Z,67.17
2022-08-02T05:03:30.775Z,67.24
2022-08-02T05:06:00.687Z,67.27
2022-08-02T05:08:28.496Z,67.34
2022-08-02T05:10:56.333Z,67.36
2022-08-02T05:13:24.055Z,67.40
2022-08-02T05:15:51.799Z,67.20
2022-08-02T05:18:19.783Z,67.04
2022-08-02T05:20:47.586Z,67.07
2022-08-02T05:23:16.519Z,67.35
2022-08-02T05:25:44.263Z,67.45
2022-08-02T05:28:12.057Z,67.70
2022-08-02T05:30:40.591Z,67.73
2022-08-02T05:33:08.578Z,67.81
2022-08-02T05:35:36.461Z,67.76
2022-08-02T05:38:04.505Z,67.94
2022-08-02T05:40:32.448Z,67.84
2022-08-02T05:43:00.167Z,67.83
2022-08-02T05:45:28.348Z,67.91
2022-08-02T05:47:56.142Z,67.94
2022-08-02T05:50:24.316Z,67.97
2022-08-02T05:53:00.480Z,68.01
2022-08-02T05:55:35.194Z,68.12
2022-08-02T05:58:13.256Z,68.05
2022-08-02T06:00:42.860Z,68.10
2022-08-02T06:03:32.557Z,67.95
2022-08-02T06:06:05.952Z,68.07
2022-08-02T06:08:42.508Z,68.08
2022-08-02T06:11:21.463Z,68.12
2022-08-02T06:13:49.365Z,68.14
2022-08-02T06:16:18.040Z,68.09
2022-08-02T06:19:01.183Z,68.04
2022-08-02T06:22:32.181Z,68.12
2022-08-02T06:24:19.871Z,68.11
2022-08-02T06:26:52.743Z,68.14
2022-08-02T06:29:23.241Z,68.04
2022-08-02T06:31:53.214Z,68.20
2022-08-02T06:34:21.233Z,68.16
2022-08-02T06:37:09.019Z,68.20
2022-08-02T06:39:44.942Z,68.12
2022-08-02T06:42:15.403Z,68.18
2022-08-02T06:44:47.859Z,68.17
2022-08-02T06:47:18.091Z,68.18
2022-08-02T06:49:51.752Z,68.26
2022-08-02T06:52:27.784Z,68.16
2022-08-02T06:55:00.549Z,68.18
2022-08-02T06:57:29.780Z,68.14
2022-08-02T07:00:01.060Z,68.05
2022-08-02T07:02:30.431Z,68.15
2022-08-02T07:04:59.037Z,67.89
2022-08-02T07:07:28.124Z,67.90
2022-08-02T07:10:00.724Z,67.93
2022-08-02T07:12:30.998Z,67.68
2022-08-02T07:15:04.525Z,67.79
2022-08-02T07:17:32.798Z,67.56
2022-08-02T07:20:01.252Z,67.75
2022-08-02T07:22:29.654Z,67.37
2022-08-02T07:24:59.268Z,66.67
2022-08-02T07:27:28.338Z,66.66
2022-08-02T07:29:56.918Z,67.33
2022-08-02T07:32:29.437Z,67.07
2022-08-02T07:34:58.546Z,67.28
2022-08-02T07:37:52.851Z,67.14
2022-08-02T07:40:20.059Z,67.16
2022-08-02T07:42:57.876Z,66.86
2022-08-02T07:45:28.047Z,67.01
2022-08-02T07:47:57.088Z,66.93
2022-08-02T07:50:25.417Z,66.85
2022-08-02T07:52:57.173Z,66.74
2022-08-02T07:55:40.174Z,66.55
2022-08-02T07:58:12.707Z,66.50
2022-08-02T08:00:43.363Z,66.39
2022-08-02T08:03:11.697Z,66.45
2022-08-02T08:05:39.907Z,66.33
2022-08-02T08:08:08.837Z,66.21
2022-08-02T08:10:40.664Z,66.07
2022-08-02T08:13:08.424Z,66.18
2022-08-02T08:15:36.183Z,66.04
2022-08-02T08:18:04.071Z,65.91
2022-08-02T08:20:33.260Z,66.00
2022-08-02T08:23:00.975Z,65.72
2022-08-02T08:25:28.670Z,65.81
2022-08-02T08:27:57.009Z,65.42
2022-08-02T08:30:25.068Z,65.61
2022-08-02T08:32:52.779Z,65.68
2022-08-02T08:35:20.834Z,65.52
2022-08-02T08:37:49.413Z,65.40
2022-08-02T08:40:19.313Z,65.43
2022-08-02T08:42:47.876Z,65.38
2022-08-02T08:45:16.505Z,65.29
2022-08-02T08:47:53.286Z,65.41
2022-08-02T08:50:30.812Z,65.51
2022-08-02T08:53:07.171Z,65.28
2022-08-02T08:55:36.550Z,65.40
2022-08-02T08:58:05.862Z,65.06
2022-08-02T09:00:36.644Z,65.23
2022-08-02T09:03:06.051Z,65.19
2022-08-02T09:05:38.788Z,65.34
2022-08-02T09:08:06.754Z,65.13
2022-08-02T09:10:48.471Z,65.20
2022-08-02T09:13:45.458Z,65.31
2022-08-02T09:16:14.966Z,65.03
2022-08-02T09:18:45.561Z,65.15
2022-08-02T09:21:15.858Z,64.94
2022-08-02T09:23:46.366Z,64.98
2022-08-02T09:26:17.196Z,65.05
2022-08-02T09:28:47.610Z,65.25
2022-08-02T09:31:18.427Z,64.89
2022-08-02T09:33:52.712Z,65.05
2022-08-02T09:36:21.575Z,65.27
2022-08-02T09:38:56.199Z,65.14
2022-08-02T09:41:26.382Z,65.17
2022-08-02T09:44:04.049Z,65.21
2022-08-02T09:46:39.480Z,65.12
2022-08-02T09:49:11.576Z,65.09
2022-08-02T09:51:45.345Z,64.95
2022-08-02T09:54:18.604Z,65.02
2022-08-02T09:56:51.387Z,64.94
2022-08-02T09:59:21.106Z,65.20
2022-08-02T10:01:51.100Z,65.05
2022-08-02T10:04:33.859Z,65.30
2022-08-02T10:07:04.901Z,65.04
2022-08-02T10:09:33.595Z,65.21
2022-08-02T10:12:01.838Z,65.17
2022-08-02T10:14:33.443Z,65.12
2022-08-02T10:17:01.519Z,65.00
2022-08-02T10:20:00.507Z,65.17
2022-08-02T10:22:19.845Z,64.87
2022-08-02T10:24:48.949Z,65.19
2022-08-02T10:27:21.528Z,65.18
2022-08-02T10:29:55.301Z,65.05
2022-08-02T10:32:37.664Z,65.03
2022-08-02T10:35:18.788Z,65.28
2022-08-02T10:38:01.215Z,65.28
2022-08-02T10:40:53.055Z,64.94
2022-08-02T10:43:32.999Z,64.84
2022-08-02T10:46:22.623Z,65.21
2022-08-02T10:52:07.282Z,65.17
2022-08-02T10:54:49.740Z,65.13
2022-08-02T10:57:26.887Z,65.12
2022-08-02T11:00:04.133Z,65.15
2022-08-02T11:02:39.456Z,65.32
2022-08-02T11:05:28.632Z,64.87
2022-08-02T11:08:19.541Z,65.09
2022-08-02T11:10:47.637Z,64.92
2022-08-02T11:13:17.493Z,65.07
2022-08-02T11:16:03.620Z,64.95
2022-08-02T11:19:03.671Z,65.35
2022-08-02T11:21:36.375Z,65.12
2022-08-02T11:24:29.641Z,65.00
2022-08-02T11:27:00.080Z,65.06
2022-08-02T11:29:41.147Z,65.20
2022-08-02T11:32:19.530Z,65.12
2022-08-02T11:34:52.489Z,65.26
2022-08-02T11:37:30.206Z,65.06
2022-08-02T11:39:58.279Z,65.02
2022-08-02T11:42:38.051Z,64.87
2022-08-02T11:45:08.476Z,64.87
2022-08-02T11:47:51.229Z,64.93
2022-08-02T11:50:29.883Z,64.94
2022-08-02T11:52:58.442Z,64.80
2022-08-02T11:55:31.090Z,64.86
2022-08-02T11:58:06.077Z,64.87
2022-08-02T12:00:35.500Z,64.73
2022-08-02T12:03:03.359Z,64.91
2022-08-02T12:06:04.674Z,64.80
2022-08-02T12:08:25.140Z,64.77
2022-08-02T12:10:53.443Z,64.93
2022-08-02T12:13:21.308Z,64.67
2022-08-02T12:15:49.195Z,64.92
2022-08-02T12:18:40.501Z,64.79
2022-08-02T12:21:26.454Z,64.92
2022-08-02T12:24:00.509Z,64.80
2022-08-02T12:26:30.141Z,64.75
2022-08-02T12:28:59.474Z,64.87
2022-08-02T12:31:56.828Z,64.71
2022-08-02T12:34:31.372Z,64.76
2022-08-02T12:37:07.151Z,64.82
2022-08-02T12:39:42.651Z,64.69
2022-08-02T12:42:13.949Z,64.69
2022-08-02T12:45:01.295Z,64.62
2022-08-02T12:47:35.682Z,64.67
2022-08-02T12:50:16.512Z,64.54
2022-08-02T12:52:46.882Z,64.55
2022-08-02T12:55:21.171Z,64.54
2022-08-02T12:58:02.579Z,64.55
2022-08-02T13:00:37.009Z,64.36
2022-08-02T13:03:11.217Z,64.35
2022-08-02T13:05:56.878Z,64.34
2022-08-02T13:08:25.713Z,64.39
2022-08-02T13:10:53.459Z,64.35
2022-08-02T13:13:21.150Z,64.34
2022-08-02T13:15:51.163Z,64.27
2022-08-02T13:18:19.260Z,64.25
2022-08-02T13:20:46.988Z,64.09
2022-08-02T13:23:21.653Z,64.03
2022-08-02T13:25:52.543Z,64.09
2022-08-02T13:28:21.436Z,64.01
2022-08-02T13:30:50.137Z,63.90
2022-08-02T13:33:18.322Z,63.88
2022-08-02T13:35:47.294Z,63.93
2022-08-02T13:38:15.059Z,63.88
2022-08-02T13:41:05.263Z,63.84
2022-08-02T13:43:52.070Z,63.76
2022-08-02T13:46:29.399Z,63.67
2022-08-02T13:48:57.601Z,63.65
2022-08-02T13:51:25.409Z,63.67
2022-08-02T13:53:53.714Z,63.64
2022-08-02T13:56:35.460Z,63.57
2022-08-02T13:59:21.846Z,63.45
2022-08-02T14:01:53.964Z,63.36
2022-08-02T14:04:22.493Z,63.26
2022-08-02T14:06:50.731Z,63.20
2022-08-02T14:09:18.861Z,63.20
2022-08-02T14:11:47.086Z,63.19
2022-08-02T14:14:16.862Z,63.05
2022-08-02T14:16:45.696Z,63.02
2022-08-02T14:19:16.032Z,63.05
2022-08-02T14:21:46.896Z,62.82
2022-08-02T14:24:21.273Z,62.86
2022-08-02T14:26:49.317Z,62.94
2022-08-02T14:29:17.963Z,62.81
2022-08-02T14:31:45.838Z,62.74
2022-08-02T14:34:13.916Z,62.67
2022-08-02T14:36:41.737Z,62.59
2022-08-02T14:39:10.134Z,62.74
2022-08-02T14:41:58.851Z,62.41
2022-08-02T14:44:25.598Z,62.47
2022-08-02T14:46:53.376Z,62.35
2022-08-02T14:49:26.045Z,62.15
2022-08-02T14:51:55.390Z,62.05
2022-08-02T14:54:30.058Z,62.21
2022-08-02T14:57:00.319Z,62.13
2022-08-02T14:59:28.890Z,62.12
2022-08-02T15:01:57.203Z,61.94
2022-08-02T15:04:25.276Z,61.78
2022-08-02T15:06:53.624Z,61.60
2022-08-02T15:09:21.504Z,61.81
2022-08-02T15:11:49.873Z,61.39
2022-08-02T15:14:22.114Z,61.35
2022-08-02T15:16:58.042Z,61.09
2022-08-02T15:19:55.908Z,61.03
2022-08-02T15:22:19.367Z,61.21
2022-08-02T15:24:48.027Z,61.17
2022-08-02T15:27:17.021Z,61.14
2022-08-02T15:29:46.012Z,61.15
2022-08-02T15:32:17.463Z,61.18
2022-08-02T15:34:46.218Z,61.09
2022-08-02T15:37:13.918Z,61.08
2022-08-02T15:39:41.703Z,61.08
2022-08-02T15:42:10.056Z,60.95
2022-08-02T15:44:38.031Z,60.90
2022-08-02T15:47:07.061Z,60.86
2022-08-02T15:49:37.057Z,60.95
2022-08-02T15:52:11.006Z,60.84
2022-08-02T15:54:39.091Z,60.95
2022-08-02T15:57:06.909Z,60.89
2022-08-02T15:59:34.756Z,60.77
2022-08-02T16:02:03.396Z,60.84
2022-08-02T16:04:32.949Z,60.92
2022-08-02T16:07:01.512Z,60.92
2022-08-02T16:09:29.726Z,60.85
2022-08-02T16:11:57.577Z,60.91
2022-08-02T16:14:25.540Z,60.84
2022-08-02T16:16:53.670Z,60.81
2022-08-02T16:19:46.311Z,60.70
2022-08-02T16:22:11.284Z,60.91
2022-08-02T16:24:39.689Z,60.93
2022-08-02T16:27:08.561Z,60.77
2022-08-02T16:29:37.547Z,60.80
2022-08-02T16:32:06.021Z,60.91
2022-08-02T16:34:56.774Z,60.79
2022-08-02T16:37:21.991Z,60.77
2022-08-02T16:39:49.717Z,60.87
2022-08-02T16:42:25.663Z,60.91
2022-08-02T16:44:54.860Z,60.86
2022-08-02T16:47:42.760Z,60.86
2022-08-02T16:50:11.127Z,60.92
2022-08-02T16:52:39.547Z,60.83
2022-08-02T16:55:10.866Z,60.87
2022-08-02T16:57:45.401Z,60.94
2022-08-02T17:00:18.475Z,60.84
2022-08-02T17:02:47.009Z,60.99
2022-08-02T17:05:15.418Z,60.98
2022-08-02T17:08:07.424Z,61.01
2022-08-02T17:10:34.372Z,61.06
2022-08-02T17:13:11.328Z,61.06
2022-08-02T17:16:08.228Z,61.14
2022-08-02T17:18:29.830Z,61.23
2022-08-02T17:20:58.251Z,61.03
2022-08-02T17:24:03.873Z,61.09
2022-08-02T17:26:14.071Z,61.06
2022-08-02T17:29:07.005Z,61.07
2022-08-02T17:31:42.884Z,61.10
2022-08-02T17:34:12.512Z,61.11
2022-08-02T17:36:40.310Z,61.15
2022-08-02T17:39:08.039Z,61.07
2022-08-02T17:41:39.746Z,61.20
2022-08-02T17:44:37.524Z,61.19
2022-08-02T17:47:07.379Z,61.19
2022-08-02T17:49:43.939Z,61.24
2022-08-02T17:52:49.395Z,61.23
2022-08-02T17:55:02.310Z,61.17
2022-08-02T17:57:57.552Z,61.26
2022-08-02T18:00:20.185Z,61.35
2022-08-02T18:02:50.563Z,61.35
2022-08-02T18:05:21.002Z,61.28
2022-08-02T18:07:53.031Z,61.43
2022-08-02T18:10:24.687Z,61.43
2022-08-02T18:12:54.382Z,61.46
2022-08-02T18:15:23.957Z,61.40
2022-08-02T18:17:51.733Z,61.40
2022-08-02T18:20:22.611Z,61.51
2022-08-02T18:22:55.600Z,61.53
2022-08-02T18:25:37.451Z,61.71
2022-08-02T18:28:11.885Z,61.61
2022-08-02T18:30:41.114Z,61.66
2022-08-02T18:33:55.766Z,61.66
2022-08-02T18:35:56.607Z,61.80
2022-08-02T18:38:27.817Z,61.65
2022-08-02T18:40:55.803Z,61.96
2022-08-02T18:43:25.293Z,61.90
2022-08-02T18:46:06.680Z,61.83
2022-08-02T18:48:46.468Z,61.92
2022-08-02T18:51:15.682Z,61.85
2022-08-02T18:53:43.540Z,61.87
2022-08-02T18:56:19.857Z,61.95
2022-08-02T18:58:55.984Z,61.96
2022-08-02T19:01:31.799Z,62.21
2022-08-02T19:04:02.688Z,62.25
2022-08-02T19:06:30.823Z,62.13
2022-08-02T19:09:05.250Z,62.33
2022-08-02T19:11:38.544Z,62.38
2022-08-02T19:14:09.298Z,62.52
2022-08-02T19:16:38.131Z,62.58
2022-08-02T19:19:06.615Z,62.41
2022-08-02T19:22:17.277Z,62.35
2022-08-02T19:24:22.867Z,62.52
2022-08-02T19:26:52.656Z,62.75
2022-08-02T19:32:42.563Z,62.72
2022-08-02T19:35:00.233Z,63.03
2022-08-02T19:37:37.008Z,62.82
2022-08-02T19:40:07.983Z,63.16
2022-08-02T19:43:13.252Z,63.11
2022-08-02T19:45:50.339Z,63.18
2022-08-02T19:48:14.903Z,63.30
2022-08-02T19:50:44.235Z,63.41
2022-08-02T19:53:18.562Z,63.50
2022-08-02T19:55:58.788Z,63.44
2022-08-02T19:58:30.842Z,63.58
2022-08-02T20:01:00.267Z,63.36
2022-08-02T20:03:51.563Z,63.65
2022-08-02T20:06:29.287Z,63.79
2022-08-02T20:08:59.362Z,63.81
2022-08-02T20:11:35.021Z,63.80
2022-08-02T20:14:07.560Z,63.85
2022-08-02T20:16:36.381Z,64.16
2022-08-02T20:19:07.772Z,63.94
2022-08-02T20:21:37.851Z,64.31
2022-08-02T20:24:10.859Z,64.11
2022-08-02T20:26:47.471Z,64.34
2022-08-02T20:29:17.440Z,64.32
2022-08-02T20:32:05.873Z,64.61
2022-08-02T20:34:36.362Z,64.58
2022-08-02T20:37:59.979Z,64.28
2022-08-02T20:39:53.755Z,64.84
2022-08-02T20:42:22.585Z,64.68
2022-08-02T20:44:55.682Z,64.63
2022-08-02T20:47:27.772Z,64.96
2022-08-02T20:50:15.398Z,64.98
2022-08-02T20:52:44.997Z,64.88
2022-08-02T20:55:16.906Z,65.07
2022-08-02T20:57:49.081Z,65.21
2022-08-02T21:00:28.920Z,65.21
2022-08-02T21:02:56.664Z,65.49
2022-08-02T21:05:27.014Z,65.17
2022-08-02T21:08:14.738Z,65.31
2022-08-02T21:10:50.607Z,65.35
2022-08-02T21:13:22.915Z,65.32
2022-08-02T21:15:53.449Z,65.29
2022-08-02T21:18:28.855Z,65.62
2022-08-02T21:21:09.600Z,65.48
2022-08-02T21:23:38.487Z,65.62
2022-08-02T21:26:28.543Z,65.56
2022-08-02T21:29:03.816Z,65.74
2022-08-02T21:31:33.445Z,65.69
2022-08-02T21:34:26.575Z,65.69
2022-08-02T21:36:53.383Z,65.76
2022-08-02T21:39:21.167Z,65.81
2022-08-02T21:41:49.512Z,65.76
2022-08-02T21:44:20.011Z,65.84
2022-08-02T21:46:50.242Z,65.82
2022-08-02T21:49:20.214Z,65.93
2022-08-02T21:51:50.242Z,65.93
2022-08-02T21:54:20.821Z,66.05
2022-08-02T21:56:53.389Z,66.06
2022-08-02T21:59:26.045Z,65.98
2022-08-02T22:01:57.888Z,66.07
2022-08-02T22:04:26.970Z,66.16
2022-08-02T22:06:55.645Z,66.27
2022-08-02T22:09:43.122Z,66.22
2022-08-02T22:12:18.359Z,66.34
2022-08-02T22:14:53.957Z,66.27
2022-08-02T22:17:51.271Z,66.32
2022-08-02T22:20:20.101Z,66.40
2022-08-02T22:22:50.415Z,66.39
2022-08-02T22:25:26.844Z,66.51
2022-08-02T22:28:37.714Z,66.54
2022-08-02T22:30:54.708Z,66.54
2022-08-02T22:33:42.214Z,66.48
2022-08-02T22:36:11.461Z,66.65
2022-08-02T22:38:44.358Z,66.52
2022-08-02T22:41:13.844Z,66.69
2022-08-02T22:43:42.617Z,66.68
2022-08-02T22:46:15.654Z,66.79
2022-08-02T22:48:45.656Z,66.72
2022-08-02T22:51:14.034Z,66.63
2022-08-02T22:53:42.661Z,66.81
2022-08-02T22:56:11.491Z,66.84
2022-08-02T22:58:48.175Z,62.69
2022-08-02T22:59:11.540Z,66.85
2022-08-02T23:01:27.224Z,66.84
2022-08-02T23:03:55.000Z,66.90
2022-08-02T23:06:23.048Z,66.86
2022-08-02T23:08:50.858Z,66.98
2022-08-02T23:11:18.700Z,67.06
2022-08-02T23:13:46.510Z,67.10
2022-08-02T23:16:37.706Z,67.20
2022-08-02T23:19:24.271Z,67.16
2022-08-02T23:22:02.435Z,67.00
2022-08-02T23:24:33.522Z,67.15
2022-08-02T23:27:01.587Z,67.29
2022-08-02T23:29:29.452Z,67.34
2022-08-02T23:31:57.278Z,67.29
2022-08-02T23:34:26.903Z,67.41
2022-08-02T23:36:54.592Z,67.37
2022-08-02T23:39:23.638Z,67.46
2022-08-02T23:41:55.106Z,67.48
2022-08-02T23:44:24.777Z,67.33
2022-08-02T23:46:53.609Z,67.28
2022-08-02T23:49:22.611Z,67.49
2022-08-02T23:51:51.563Z,67.52
2022-08-02T23:54:20.366Z,67.36
2022-08-02T23:56:48.162Z,67.60
2022-08-02T23:59:16.504Z,67.83
